createdAt,value
2022-11-07T00:05:02.807Z,9.86
2022-11-07T00:10:06.668Z,9.94
2022-11-07T00:15:10.133Z,9.87
2022-11-07T00:20:14.351Z,9.50
2022-11-07T00:25:17.253Z,9.87
2022-11-07T00:30:19.965Z,9.75
2022-11-07T00:35:24.226Z,9.48
2022-11-07T00:40:27.016Z,9.26
2022-11-07T00:45:29.860Z,9.00
2022-11-07T00:50:34.039Z,8.77
2022-11-07T00:55:37.106Z,8.75
2022-11-07T01:00:39.990Z,8.46
2022-11-07T01:05:44.089Z,8.58
2022-11-07T01:10:46.968Z,8.67
2022-11-07T01:15:49.681Z,8.79
2022-11-07T01:20:53.936Z,8.66
2022-11-07T01:25:56.672Z,8.87
2022-11-07T01:30:59.486Z,8.66
2022-11-07T01:36:06.051Z,8.78
2022-11-07T01:41:23.030Z,8.68
2022-11-07T01:46:29.039Z,8.45
2022-11-07T01:51:36.350Z,8.34
2022-11-07T01:56:42.727Z,8.34
2022-11-07T02:01:45.748Z,8.23
2022-11-07T02:06:55.400Z,8.27
2022-11-07T02:12:01.005Z,8.36
2022-11-07T02:17:04.219Z,8.36
2022-11-07T02:22:18.758Z,8.46
2022-11-07T02:27:26.592Z,8.30
2022-11-07T02:32:29.341Z,8.43
2022-11-07T02:37:35.360Z,8.55
2022-11-07T02:42:47.509Z,8.54
2022-11-07T02:47:50.242Z,8.36
2022-11-07T02:52:53.167Z,8.68
2022-11-07T02:57:57.166Z,8.73
2022-11-07T03:02:59.919Z,8.62
2022-11-07T03:08:02.728Z,8.72
2022-11-07T03:13:06.860Z,8.92
2022-11-07T03:18:09.743Z,8.71
2022-11-07T03:23:12.883Z,8.70
2022-11-07T03:28:17.238Z,8.92
2022-11-07T03:33:20.550Z,9.04
2022-11-07T03:38:23.289Z,9.07
2022-11-07T03:43:27.365Z,9.13
2022-11-07T03:48:30.144Z,9.30
2022-11-07T03:53:33.409Z,8.99
2022-11-07T03:58:37.629Z,9.25
2022-11-07T04:03:40.577Z,9.16
2022-11-07T04:08:43.229Z,9.08
2022-11-07T04:14:05.053Z,9.23
2022-11-07T04:19:07.842Z,9.02
2022-11-07T04:24:10.532Z,9.02
2022-11-07T04:29:14.515Z,8.80
2022-11-07T04:34:17.202Z,9.10
2022-11-07T04:39:19.836Z,9.02
2022-11-07T04:44:23.908Z,9.32
2022-11-07T04:49:26.632Z,9.44
2022-11-07T04:54:29.619Z,9.77
2022-11-07T04:59:33.555Z,9.49
2022-11-07T05:04:36.214Z,9.82
2022-11-07T05:09:38.854Z,9.81
2022-11-07T05:14:42.770Z,9.89
2022-11-07T05:19:45.452Z,9.98
2022-11-07T05:24:48.036Z,10.06
2022-11-07T05:29:52.127Z,10.21
2022-11-07T05:34:54.719Z,10.21
2022-11-07T05:39:57.321Z,10.27
2022-11-07T05:45:01.294Z,10.64
2022-11-07T05:50:03.926Z,10.47
2022-11-07T05:55:08.300Z,10.55
2022-11-07T06:00:14.163Z,10.11
2022-11-07T06:05:20.509Z,9.97
2022-11-07T06:10:27.057Z,10.45
2022-11-07T06:15:32.803Z,10.65
2022-11-07T06:20:36.071Z,10.47
2022-11-07T06:25:38.865Z,10.30
2022-11-07T06:30:43.494Z,9.99
2022-11-07T06:35:47.194Z,10.21
2022-11-07T06:40:49.777Z,9.94
2022-11-07T06:45:53.899Z,9.72
2022-11-07T06:50:58.195Z,9.73
2022-11-07T06:56:01.890Z,9.58
2022-11-07T07:01:08.652Z,9.79
2022-11-07T07:06:15.765Z,10.01
2022-11-07T07:11:18.686Z,9.85
2022-11-07T07:16:22.777Z,9.96
2022-11-07T07:21:26.032Z,9.85
2022-11-07T07:26:29.233Z,9.96
2022-11-07T07:31:33.704Z,9.77
2022-11-07T07:36:36.363Z,9.94
2022-11-07T07:41:40.338Z,9.97
2022-11-07T07:46:44.574Z,10.36
2022-11-07T07:51:50.883Z,10.46
2022-11-07T07:56:53.711Z,10.85
2022-11-07T08:02:09.460Z,10.86
2022-11-07T08:07:12.338Z,11.39
2022-11-07T08:12:15.137Z,10.98
2022-11-07T08:17:19.472Z,10.97
2022-11-07T08:22:22.218Z,11.40
2022-11-07T08:27:25.303Z,11.57
2022-11-07T08:32:29.828Z,11.95
2022-11-07T08:37:34.575Z,12.20
2022-11-07T08:42:46.680Z,12.48
2022-11-07T08:47:57.182Z,12.87
2022-11-07T08:53:02.983Z,12.58
2022-11-07T08:58:07.715Z,12.51
2022-11-07T09:03:48.909Z,12.99
2022-11-07T09:08:51.948Z,13.38
2022-11-07T09:13:55.550Z,13.73
2022-11-07T09:18:59.870Z,13.80
2022-11-07T09:24:06.718Z,14.13
2022-11-07T09:29:09.992Z,13.76
2022-11-07T09:34:14.134Z,14.13
2022-11-07T09:39:16.810Z,14.15
2022-11-07T09:44:40.092Z,14.86
2022-11-07T09:49:51.810Z,15.05
2022-11-07T09:55:00.201Z,14.87
2022-11-07T10:00:11.136Z,15.78
2022-11-07T10:05:20.336Z,15.35
2022-11-07T10:10:28.450Z,16.08
2022-11-07T10:15:47.884Z,19.30
2022-11-07T10:21:31.060Z,18.46
2022-11-07T10:26:48.503Z,18.73
2022-11-07T10:31:57.938Z,16.25
2022-11-07T10:37:30.621Z,16.12
2022-11-07T10:42:41.142Z,15.80
2022-11-07T10:47:44.397Z,15.76
2022-11-07T10:52:56.997Z,15.50
2022-11-07T10:58:05.714Z,15.36
2022-11-07T11:03:18.086Z,15.43
2022-11-07T11:08:32.307Z,15.00
2022-11-07T11:13:35.996Z,15.18
2022-11-07T11:18:41.801Z,14.86
2022-11-07T11:24:07.708Z,15.46
2022-11-07T11:29:15.966Z,14.81
2022-11-07T11:34:23.740Z,14.98
2022-11-07T11:39:42.936Z,14.77
2022-11-07T11:44:46.911Z,14.63
2022-11-07T11:49:54.617Z,14.53
2022-11-07T11:55:04.775Z,14.70
2022-11-07T12:00:14.836Z,14.72
2022-11-07T12:05:27.625Z,14.77
2022-11-07T12:10:49.605Z,15.04
2022-11-07T12:16:36.704Z,15.61
2022-11-07T12:21:55.287Z,15.48
2022-11-07T12:27:27.093Z,15.79
2022-11-07T12:34:03.507Z,15.11
2022-11-07T12:39:48.551Z,14.99
2022-11-07T12:45:25.025Z,15.10
2022-11-07T12:57:11.378Z,14.82
2022-11-07T13:08:41.757Z,15.06
2022-11-07T13:14:24.409Z,15.53
2022-11-07T13:19:51.662Z,15.01
2022-11-07T13:25:33.901Z,15.46
2022-11-07T13:30:50.812Z,15.36
2022-11-07T13:36:04.940Z,15.19
2022-11-07T13:41:09.310Z,15.78
2022-11-07T13:46:29.623Z,15.63
2022-11-07T13:51:54.004Z,15.36
2022-11-07T13:57:01.625Z,15.59
2022-11-07T14:02:53.836Z,15.34
2022-11-07T14:08:38.060Z,15.86
2022-11-07T14:13:57.369Z,15.20
2022-11-07T14:19:04.864Z,15.13
2022-11-07T14:24:50.455Z,15.47
2022-11-07T14:30:10.830Z,15.24
2022-11-07T14:36:12.782Z,15.44
2022-11-07T14:53:39.046Z,15.36
2022-11-07T14:58:43.194Z,15.30
2022-11-07T15:03:54.898Z,15.66
2022-11-07T15:09:00.029Z,15.19
2022-11-07T15:14:07.815Z,15.29
2022-11-07T15:19:18.963Z,15.08
2022-11-07T15:24:38.672Z,15.24
2022-11-07T15:29:52.067Z,14.71
2022-11-07T15:35:23.165Z,14.95
2022-11-07T15:40:20.180Z,14.19
2022-11-07T15:45:24.732Z,14.82
2022-11-07T15:50:27.441Z,15.11
2022-11-07T15:55:30.128Z,14.72
2022-11-07T16:00:34.549Z,14.71
2022-11-07T16:05:37.556Z,14.75
2022-11-07T16:10:45.636Z,14.21
2022-11-07T16:15:51.493Z,14.83
2022-11-07T16:20:54.509Z,14.80
2022-11-07T16:25:57.160Z,15.02
2022-11-07T16:31:03.065Z,14.90
2022-11-07T16:36:19.179Z,15.06
2022-11-07T16:41:22.224Z,14.78
2022-11-07T16:46:29.504Z,14.54
2022-11-07T16:51:33.029Z,14.57
2022-11-07T16:56:36.628Z,14.53
2022-11-07T17:01:40.710Z,14.22
2022-11-07T17:06:47.375Z,14.24
2022-11-07T17:11:50.037Z,14.51
2022-11-07T17:16:54.082Z,14.25
2022-11-07T17:21:56.696Z,14.37
2022-11-07T17:26:59.904Z,14.67
2022-11-07T17:32:03.780Z,14.51
2022-11-07T17:37:06.632Z,14.47
2022-11-07T17:42:09.826Z,14.41
2022-11-07T17:47:28.566Z,14.22
2022-11-07T17:52:31.471Z,14.05
2022-11-07T17:57:34.199Z,14.07
2022-11-07T18:02:38.328Z,13.94
2022-11-07T18:07:41.143Z,13.72
2022-11-07T18:12:44.454Z,13.67
2022-11-07T18:17:48.411Z,13.80
2022-11-07T18:22:53.297Z,13.23
2022-11-07T18:27:55.886Z,13.32
2022-11-07T18:32:59.992Z,13.36
2022-11-07T18:38:02.538Z,13.46
2022-11-07T18:43:05.080Z,12.97
2022-11-07T18:48:09.054Z,13.16
2022-11-07T18:53:11.747Z,13.02
2022-11-07T18:58:14.640Z,12.81
2022-11-07T19:03:18.957Z,12.84
2022-11-07T19:08:21.757Z,12.84
2022-11-07T19:13:24.947Z,12.86
2022-11-07T19:18:28.834Z,12.97
2022-11-07T19:23:31.458Z,12.97
2022-11-07T19:28:34.521Z,12.83
2022-11-07T19:33:38.489Z,12.96
2022-11-07T19:38:41.250Z,13.19
2022-11-07T19:43:50.073Z,12.72
2022-11-07T19:48:56.467Z,12.93
2022-11-07T19:54:00.774Z,12.74
2022-11-07T19:59:03.746Z,12.67
2022-11-07T20:04:08.844Z,12.59
2022-11-07T20:09:13.842Z,12.74
2022-11-07T20:14:16.740Z,12.56
2022-11-07T20:19:20.686Z,12.61
2022-11-07T20:24:23.311Z,12.80
2022-11-07T20:29:25.947Z,12.68
2022-11-07T20:34:30.141Z,12.65
2022-11-07T20:39:32.819Z,12.81
2022-11-07T20:44:35.974Z,12.97
2022-11-07T20:49:42.346Z,12.86
2022-11-07T20:54:45.040Z,12.98
2022-11-07T20:59:47.710Z,12.79
2022-11-07T21:05:16.104Z,12.92
2022-11-07T21:10:15.479Z,12.71
2022-11-07T21:15:18.265Z,12.57
2022-11-07T21:20:22.256Z,12.72
2022-11-07T21:25:25.101Z,12.75
2022-11-07T21:30:27.767Z,12.82
2022-11-07T21:35:33.752Z,12.60
2022-11-07T21:40:38.585Z,12.64
2022-11-07T21:45:41.273Z,12.61
2022-11-07T21:50:45.718Z,12.47
2022-11-07T21:55:48.359Z,12.49
2022-11-07T22:00:50.929Z,12.60
2022-11-07T22:05:55.153Z,12.71
2022-11-07T22:10:59.660Z,12.67
2022-11-07T22:16:02.773Z,12.43
2022-11-07T22:21:08.296Z,12.74
2022-11-07T22:26:13.170Z,13.05
2022-11-07T22:31:17.848Z,12.89
2022-11-07T22:36:22.515Z,12.76
2022-11-07T22:41:27.024Z,12.59
2022-11-07T22:46:31.535Z,12.69
2022-11-07T22:51:36.120Z,12.22
2022-11-07T22:56:38.924Z,12.41
2022-11-07T23:01:43.197Z,12.31
2022-11-07T23:06:47.194Z,12.19
2022-11-07T23:11:51.127Z,12.34
2022-11-07T23:16:56.091Z,12.23
2022-11-07T23:22:01.018Z,12.48
2022-11-07T23:27:03.698Z,11.95
2022-11-07T23:32:06.320Z,12.12
2022-11-07T23:37:13.842Z,12.21
2022-11-07T23:42:16.391Z,12.03
2022-11-07T23:47:36.845Z,11.98
2022-11-07T23:52:40.772Z,12.00
2022-11-07T23:57:57.291Z,12.34
